66.5°F
Current conditions from King Hill
Updated every 5 minutes
 
  Wednesday September 17, 2014

Station Historical Data
Daily Summary for May 1, 2011 Units:  Metric    English   Both
« Previous Day
Next Day »
Daily Weekly Monthly Yearly Custom
  High: Low: Average:
Temperature: 20.6 °C 2.9 °C 12.7 °C
Dew Point: 2.7 °C -8.9 °C -0.4 °C
Humidity: 79% 16% 45%
Wind Speed: 12.9km/h 0km/h 5km/h
Wind Gust: 22.5km/h - -
Wind- - South
Pressure: 1025.6 hPa 1018.8 hPa -
Precipitation: 0 mm    
Historical Graphs
 
 
Tabular Data for May 1, 2011
Time Temperature Dew Point Pressure Wind Wind Speed Wind Gust Humidity Daily Rainfall
00:00 6.9 °C 0.8 °C 1023.6 hPa Calm     65% 0.5 mm
00:05 6.7 °C 0.8 °C 1023.6 hPa Calm     66% 0 mm
00:10 6.5 °C 1.2 °C 1023.6 hPa Calm     69% 0 mm
00:15 5.9 °C 0.6 °C 1023.6 hPa Calm     69% 0 mm
00:20 5.6 °C 0.7 °C 1023.6 hPa Calm   1.6 km/h 71% 0 mm
00:25 5.7 °C 0.8 °C 1023.6 hPa Calm   1.6 km/h 71% 0 mm
00:30 6 °C 0.9 °C 1023.6 hPa Calm     70% 0 mm
00:40 6.1 °C 0.4 °C 1023.9 hPa Calm     67% 0 mm
00:45 6.1 °C 0.7 °C 1023.9 hPa Calm     68% 0 mm
00:50 6.1 °C 0.2 °C 1023.9 hPa Calm     66% 0 mm
00:55 6.2 °C 1.1 °C 1023.9 hPa Calm     70% 0 mm
01:05 5.9 °C 0.3 °C 1023.9 hPa Calm     67% 0 mm
01:10 5.9 °C 0.4 °C 1023.9 hPa Calm     68% 0 mm
01:20 5.9 °C 0.2 °C 1023.9 hPa Calm     67% 0 mm
01:25 5.9 °C 0.2 °C 1023.9 hPa Calm     67% 0 mm
01:30 5.7 °C 0.3 °C 1023.9 hPa Calm     68% 0 mm
01:35 5.6 °C 0.5 °C 1023.9 hPa Calm     70% 0 mm
01:45 6 °C 0.9 °C 1023.9 hPa Calm   3.2 km/h 70% 0 mm
01:50 6.1 °C 1 °C 1023.9 hPa Calm   1.6 km/h 70% 0 mm
01:55 5.9 °C 1.2 °C 1023.9 hPa Calm     72% 0 mm
02:00 5.6 °C 0.7 °C 1023.9 hPa Calm     71% 0 mm
02:05 5.1 °C 0.3 °C 1024.3 hPa Calm     71% 0 mm
02:10 4.8 °C 0.2 °C 1024.3 hPa Calm     72% 0 mm
02:15 4.4 °C 0.1 °C 1024.3 hPa Calm     73% 0 mm
02:20 4.2 °C 0.2 °C 1023.9 hPa Calm     75% 0 mm
02:25 4.1 °C 0 °C 1023.9 hPa Calm     75% 0 mm
02:35 3.8 °C -0.1 °C 1024.3 hPa Calm     76% 0 mm
02:40 3.8 °C -0.2 °C 1024.3 hPa Calm     75% 0 mm
02:45 3.9 °C -0.1 °C 1024.3 hPa Calm     75% 0 mm
02:50 3.8 °C -0.2 °C 1024.3 hPa Calm     75% 0 mm
02:55 3.9 °C -0.1 °C 1024.3 hPa Calm     75% 0 mm
03:00 4.2 °C 0.1 °C 1024.3 hPa Calm     75% 0 mm
03:05 4.3 °C 0.2 °C 1024.3 hPa Calm     75% 0 mm
03:10 4.2 °C 0.2 °C 1024.3 hPa Calm     75% 0 mm
03:20 3.8 °C -0.1 °C 1024.3 hPa Calm     76% 0 mm
03:25 3.6 °C -0.3 °C 1024.3 hPa Calm     76% 0 mm
03:30 3.4 °C -0.3 °C 1024.3 hPa Calm     77% 0 mm
03:35 3.2 °C -0.3 °C 1024.3 hPa Calm   1.6 km/h 78% 0 mm
03:40 3 °C -0.3 °C 1024.3 hPa Calm   1.6 km/h 79% 0 mm
03:45 2.9 °C -0.4 °C 1024.6 hPa Calm     79% 0 mm
03:50 3.1 °C -0.2 °C 1024.6 hPa Calm     79% 0 mm
03:55 3.6 °C 0.3 °C 1024.6 hPa Calm   3.2 km/h 79% 0 mm
04:00 3.9 °C 0.4 °C 1024.9 hPa Calm   3.2 km/h 78% 0 mm
04:05 4.2 °C 0.3 °C 1024.6 hPa Calm     76% 0 mm
04:10 4.4 °C 0.7 °C 1024.9 hPa Calm     77% 0 mm
04:15 4.4 °C 0.6 °C 1024.9 hPa Calm   1.6 km/h 76% 0 mm
04:20 4.4 °C 0.8 °C 1024.6 hPa Calm   3.2 km/h 77% 0 mm
04:25 5.1 °C 1 °C 1024.6 hPa Calm   3.2 km/h 75% 0 mm
04:30 5.6 °C 1.2 °C 1024.9 hPa Calm   3.2 km/h 73% 0 mm
04:35 5.8 °C 1 °C 1024.9 hPa Calm   3.2 km/h 71% 0 mm
04:40 5.7 °C 1 °C 1024.9 hPa Calm   1.6 km/h 72% 0 mm
04:45 5.3 °C 0.9 °C 1024.6 hPa Calm   1.6 km/h 73% 0 mm
04:50 5.4 °C 0.8 °C 1024.9 hPa Calm   3.2 km/h 72% 0 mm
04:55 5.6 °C 0.8 °C 1024.9 hPa Calm   3.2 km/h 71% 0 mm
05:00 5.4 °C 0.3 °C 1024.9 hPa Calm   3.2 km/h 70% 0 mm
05:05 4.9 °C 0.1 °C 1024.9 hPa Calm     71% 0 mm
05:10 4.3 °C -0.1 °C 1024.9 hPa Calm     73% 0 mm
05:15 4 °C -0.1 °C 1024.9 hPa Calm     75% 0 mm
05:20 3.7 °C -0.1 °C 1024.9 hPa Calm     76% 0 mm
05:25 3.8 °C 0.1 °C 1024.9 hPa Calm     77% 0 mm
05:30 4.1 °C 0.3 °C 1024.9 hPa Calm     76% 0 mm
05:35 4.4 °C 0.6 °C 1024.9 hPa Calm   3.2 km/h 76% 0 mm
05:40 4.8 °C 0.8 °C 1024.9 hPa Calm   3.2 km/h 75% 0 mm
05:45 5 °C 0.8 °C 1024.9 hPa Calm   3.2 km/h 74% 0 mm
05:50 4.9 °C 0.5 °C 1024.9 hPa Calm   1.6 km/h 73% 0 mm
05:55 5.1 °C 0.7 °C 1024.9 hPa Calm   3.2 km/h 73% 0 mm
06:00 5.1 °C 0.8 °C 1024.9 hPa Calm   3.2 km/h 74% 0 mm
06:05 5.1 °C 0.7 °C 1024.9 hPa Calm   3.2 km/h 73% 0 mm
06:10 5.2 °C 0.7 °C 1025.3 hPa Calm   3.2 km/h 73% 0 mm
06:15 5.1 °C 0.5 °C 1025.3 hPa Calm   1.6 km/h 72% 0 mm
06:20 4.9 °C 0.3 °C 1024.9 hPa Calm   1.6 km/h 72% 0 mm
06:25 4.7 °C 0.4 °C 1024.9 hPa Calm     74% 0 mm
06:30 4.5 °C 0.1 °C 1024.9 hPa Calm     73% 0 mm
06:35 4.8 °C 0.2 °C 1025.3 hPa Calm     72% 0 mm
06:40 5.1 °C 0.5 °C 1025.3 hPa Calm   1.6 km/h 72% 0 mm
06:45 5.2 °C 0.4 °C 1025.3 hPa Calm   1.6 km/h 71% 0 mm
06:50 5.4 °C 0.2 °C 1025.6 hPa Calm   3.2 km/h 69% 0 mm
06:55 5.7 °C 0.5 °C 1025.6 hPa Calm   3.2 km/h 69% 0 mm
07:00 5.8 °C 0.6 °C 1025.6 hPa Calm   3.2 km/h 69% 0 mm
07:05 5.9 °C 0.6 °C 1025.6 hPa Calm   3.2 km/h 69% 0 mm
07:10 5.9 °C -0.1 °C 1025.6 hPa Calm   1.6 km/h 65% 0 mm
07:15 6.3 °C 0.2 °C 1025.6 hPa Calm   3.2 km/h 65% 0 mm
07:20 6.7 °C 0.1 °C 1025.6 hPa Calm   3.2 km/h 63% 0 mm
07:25 7.2 °C 0.9 °C 1025.6 hPa Calm   1.6 km/h 64% 0 mm
07:35 8.2 °C -0.3 °C 1025.6 hPa Calm   3.2 km/h 55% 0 mm
07:40 8.7 °C 0.1 °C 1025.6 hPa Calm   3.2 km/h 55% 0 mm
07:45 8.9 °C -0.2 °C 1025.6 hPa Calm   6.4 km/h 53% 0 mm
07:50 9.2 °C 1.6 °C 1025.6 hPa Calm   6.4 km/h 59% 0 mm
07:55 9.3 °C 1.7 °C 1025.6 hPa Calm   1.6 km/h 59% 0 mm
08:00 9.4 °C 1.1 °C 1025.6 hPa Calm   1.6 km/h 56% 0 mm
08:05 9.8 °C 0.4 °C 1025.6 hPa Calm   4.8 km/h 52% 0 mm
08:10 10.2 °C -0.3 °C 1025.6 hPa Calm   4.8 km/h 48% 0 mm
08:15 10.7 °C 0.1 °C 1025.6 hPa Calm   4.8 km/h 48% 0 mm
08:20 10.9 °C -0.2 °C 1025.6 hPa NE 1.6 km/h 8 km/h 46% 0 mm
08:25 10.9 °C -0.2 °C 1025.6 hPa NNE 1.6 km/h 9.7 km/h 46% 0 mm
08:30 10.8 °C -0.6 °C 1025.6 hPa Calm   9.7 km/h 45% 0 mm
08:40 11.1 °C -0.4 °C 1025.6 hPa Calm   11.3 km/h 45% 0 mm
08:50 11.6 °C 0.3 °C 1025.3 hPa Calm   9.7 km/h 46% 0 mm
08:55 11.7 °C 0.1 °C 1025.3 hPa NNE 1.6 km/h 6.4 km/h 45% 0 mm
09:00 11.9 °C -0.2 °C 1025.3 hPa Calm   6.4 km/h 43% 0 mm
09:05 12.2 °C -0.4 °C 1025.3 hPa Calm   6.4 km/h 42% 0 mm
09:10 12.6 °C 0.6 °C 1025.3 hPa Calm   6.4 km/h 44% 0 mm
09:15 13 °C -0.3 °C 1025.3 hPa NE 1.6 km/h 8 km/h 40% 0 mm
09:20 13.3 °C -0.1 °C 1025.3 hPa Calm   8 km/h 40% 0 mm
09:25 13.7 °C -0.1 °C 1025.3 hPa Calm   6.4 km/h 39% 0 mm
09:30 14 °C -2 °C 1025.3 hPa Calm   6.4 km/h 33% 0 mm
09:40 14.4 °C -2.5 °C 1025.3 hPa NE 1.6 km/h 8 km/h 31% 0 mm
09:45 14.3 °C -2.2 °C 1025.3 hPa Calm   8 km/h 32% 0 mm
09:50 14.6 °C -2.4 °C 1024.9 hPa NNE 1.6 km/h 11.3 km/h 31% 0 mm
09:55 14.7 °C -1.8 °C 1024.9 hPa NE 1.6 km/h 11.3 km/h 32% 0 mm
10:00 14.9 °C -2.1 °C 1024.9 hPa Calm   8 km/h 31% 0 mm
10:05 15.2 °C -2.7 °C 1024.9 hPa NNE 1.6 km/h 8 km/h 29% 0 mm
10:10 15 °C -2.9 °C 1024.9 hPa East 3.2 km/h 8 km/h 29% 0 mm
10:15 15.1 °C -1.9 °C 1024.9 hPa ENE 3.2 km/h 8 km/h 31% 0 mm
10:20 15.3 °C -1.3 °C 1024.6 hPa Calm   8 km/h 32% 0 mm
10:30 15.7 °C -3.8 °C 1024.9 hPa NNE 4.8 km/h 12.9 km/h 26% 0 mm
10:40 15.6 °C -3.3 °C 1024.6 hPa ENE 6.4 km/h 16.1 km/h 27% 0 mm
10:45 15.7 °C -3.7 °C 1024.6 hPa NE 3.2 km/h 16.1 km/h 26% 0 mm
10:50 15.9 °C -4.1 °C 1024.6 hPa ENE 1.6 km/h 12.9 km/h 25% 0 mm
10:55 16.2 °C -3.9 °C 1024.6 hPa NE 1.6 km/h 12.9 km/h 25% 0 mm
11:00 16.7 °C -4.5 °C 1024.6 hPa East 3.2 km/h 11.3 km/h 23% 0 mm
11:05 16.8 °C -5.7 °C 1024.6 hPa NNE 3.2 km/h 16.1 km/h 21% 0 mm
11:10 16.9 °C -6.2 °C 1024.6 hPa NE 1.6 km/h 16.1 km/h 20% 0 mm
11:15 16.9 °C -6.9 °C 1024.6 hPa NE 4.8 km/h 17.7 km/h 19% 0 mm
11:20 17.1 °C -8.9 °C 1024.6 hPa NE 8 km/h 17.7 km/h 16% 0 mm
11:25 17.1 °C -5.4 °C 1024.3 hPa East 4.8 km/h 16.1 km/h 21% 0 mm
11:30 17.1 °C -6.1 °C 1024.3 hPa NE 4.8 km/h 17.7 km/h 20% 0 mm
11:35 17.2 °C -6 °C 1024.3 hPa ENE 3.2 km/h 17.7 km/h 20% 0 mm
11:40 17.5 °C -6.4 °C 1024.3 hPa NNE 11.3 km/h 17.7 km/h 19% 0 mm
11:45 17.5 °C -5.1 °C 1023.9 hPa East 6.4 km/h 20.9 km/h 21% 0 mm
11:50 17.6 °C -6.3 °C 1023.9 hPa ENE 8 km/h 20.9 km/h 19% 0 mm
11:55 17.8 °C -6.2 °C 1023.9 hPa ENE 6.4 km/h 16.1 km/h 19% 0 mm
12:00 18.1 °C -5.9 °C 1023.9 hPa NE 6.4 km/h 16.1 km/h 19% 0 mm
12:05 18 °C -4.7 °C 1023.6 hPa East 3.2 km/h 16.1 km/h 21% 0 mm
12:10 18.1 °C -3.9 °C 1023.6 hPa East 4.8 km/h 9.7 km/h 22% 0 mm
12:15 18.2 °C -2.1 °C 1023.6 hPa NNE 3.2 km/h 16.1 km/h 25% 0 mm
12:20 18.3 °C -3.2 °C 1023.6 hPa ENE 3.2 km/h 16.1 km/h 23% 0 mm
12:25 18.3 °C -5 °C 1023.2 hPa NE 8 km/h 16.1 km/h 20% 0 mm
12:35 18.4 °C -5 °C 1023.2 hPa SE 9.7 km/h 16.1 km/h 20% 0 mm
12:40 18.4 °C -6.3 °C 1023.2 hPa ENE 9.7 km/h 22.5 km/h 18% 0 mm
12:45 18.6 °C -5.4 °C 1023.2 hPa NE 3.2 km/h 22.5 km/h 19% 0 mm
12:55 18.9 °C -5.9 °C 1023.2 hPa ESE 3.2 km/h 17.7 km/h 18% 0 mm
13:00 19.1 °C -5.8 °C 1022.9 hPa NNE 4.8 km/h 17.7 km/h 18% 0 mm
13:05 19.2 °C -5.7 °C 1023.2 hPa ENE 8 km/h 22.5 km/h 18% 0 mm
13:10 19.3 °C -4.9 °C 1022.9 hPa NE 11.3 km/h 22.5 km/h 19% 0 mm
13:15 19 °C -5.9 °C 1022.9 hPa East 3.2 km/h 19.3 km/h 18% 0 mm
13:20 19.2 °C -5.7 °C 1022.9 hPa North 6.4 km/h 16.1 km/h 18% 0 mm
13:25 19.4 °C -5.5 °C 1023.2 hPa NE 9.7 km/h 16.1 km/h 18% 0 mm
13:30 19.5 °C -4.7 °C 1022.9 hPa ESE 1.6 km/h 16.1 km/h 19% 0 mm
13:35 19.8 °C -5.2 °C 1022.9 hPa NE 4.8 km/h 16.1 km/h 18% 0 mm
13:40 19.8 °C -5.2 °C 1022.9 hPa ENE 6.4 km/h 16.1 km/h 18% 0 mm
13:45 20 °C -3 °C 1022.6 hPa NNE 1.6 km/h 19.3 km/h 21% 0 mm
13:50 19.9 °C -3.7 °C 1022.6 hPa East 3.2 km/h 19.3 km/h 20% 0 mm
14:00 20.1 °C -2.9 °C 1022.6 hPa North 1.6 km/h 14.5 km/h 21% 0 mm
14:05 20.2 °C -4.8 °C 1022.6 hPa ENE 4.8 km/h 12.9 km/h 18% 0 mm
14:10 20.3 °C -0.4 °C 1022.6 hPa NW 8 km/h 22.5 km/h 25% 0 mm
14:15 19.7 °C 1.6 °C 1022.6 hPa NNW 6.4 km/h 22.5 km/h 30% 0 mm
14:20 19.4 °C 2.3 °C 1022.6 hPa NW 8 km/h 19.3 km/h 32% 0 mm
14:30 18.6 °C 1.2 °C 1022.6 hPa WNW 12.9 km/h 22.5 km/h 31% 0 mm
14:35 18.2 °C 1.7 °C 1022.6 hPa NW 9.7 km/h 20.9 km/h 33% 0 mm
14:40 18.1 °C 1.6 °C 1022.6 hPa West 12.9 km/h 22.5 km/h 33% 0 mm
14:45 18.4 °C 2.3 °C 1022.2 hPa NNW 12.9 km/h 22.5 km/h 34% 0 mm
14:50 18.5 °C 2.3 °C 1022.2 hPa NNW 9.7 km/h 22.5 km/h 34% 0 mm
14:55 18.8 °C 1.8 °C 1022.6 hPa NNW 11.3 km/h 19.3 km/h 32% 0 mm
15:00 18.7 °C 1.7 °C 1022.2 hPa NW 9.7 km/h 19.3 km/h 32% 0 mm
15:05 18.5 °C 1.1 °C 1022.2 hPa WNW 9.7 km/h 17.7 km/h 31% 0 mm
15:10 18.5 °C 1.9 °C 1022.2 hPa WNW 12.9 km/h 19.3 km/h 33% 0 mm
15:15 18.6 °C 1.1 °C 1021.9 hPa WNW 9.7 km/h 19.3 km/h 31% 0 mm
15:20 18.6 °C 1.6 °C 1021.9 hPa NNW 3.2 km/h 19.3 km/h 32% 0 mm
15:25 18.9 °C 0.9 °C 1021.9 hPa NW 8 km/h 17.7 km/h 30% 0 mm
15:30 18.8 °C 0.9 °C 1021.6 hPa WNW 4.8 km/h 17.7 km/h 30% 0 mm
15:35 18.8 °C 0.4 °C 1021.6 hPa WNW 3.2 km/h 9.7 km/h 29% 0 mm
15:40 19.1 °C 1.6 °C 1021.9 hPa WNW 6.4 km/h 12.9 km/h 31% 0 mm
15:45 19.1 °C 1.1 °C 1021.9 hPa NW 8 km/h 17.7 km/h 30% 0 mm
15:50 19.3 °C 1.8 °C 1021.6 hPa NW 8 km/h 17.7 km/h 31% 0 mm
15:55 19.4 °C 0.4 °C 1021.6 hPa NNW 8 km/h 14.5 km/h 28% 0 mm
16:00 19.3 °C 0.8 °C 1021.6 hPa NW 9.7 km/h 14.5 km/h 29% 0 mm
16:05 19.5 °C 1.4 °C 1021.6 hPa WNW 4.8 km/h 12.9 km/h 30% 0 mm
16:10 19.7 °C 0.7 °C 1021.6 hPa NNW 6.4 km/h 12.9 km/h 28% 0 mm
16:15 19.7 °C 0.7 °C 1021.2 hPa NW 1.6 km/h 12.9 km/h 28% 0 mm
16:20 19.7 °C 0.7 °C 1021.2 hPa NW 1.6 km/h 11.3 km/h 28% 0 mm
16:25 19.8 °C 1.3 °C 1021.2 hPa WNW 8 km/h 14.5 km/h 29% 0 mm
16:30 19.8 °C 1.8 °C 1021.2 hPa NNW 1.6 km/h 14.5 km/h 30% 0 mm
16:35 19.9 °C 0.9 °C 1021.2 hPa Calm   11.3 km/h 28% 0 mm
16:40 20 °C 0.4 °C 1021.2 hPa NNW 4.8 km/h 12.9 km/h 27% 0 mm
16:50 20.3 °C 1.2 °C 1021.2 hPa NW 8 km/h 17.7 km/h 28% 0 mm
16:55 20.4 °C 0.3 °C 1021.2 hPa NW 6.4 km/h 17.7 km/h 26% 0 mm
17:00 20.3 °C 0.2 °C 1021.2 hPa WNW 6.4 km/h 11.3 km/h 26% 0 mm
17:05 20.6 °C -0.2 °C 1021.2 hPa WNW 1.6 km/h 9.7 km/h 25% 0 mm
17:10 20.6 °C -0.7 °C 1021.2 hPa WNW 3.2 km/h 17.7 km/h 24% 0 mm
17:15 20.6 °C -0.7 °C 1021.2 hPa NW 6.4 km/h 17.7 km/h 24% 0 mm
17:20 20.3 °C 0.2 °C 1021.2 hPa WNW 3.2 km/h 12.9 km/h 26% 0 mm
17:25 20.1 °C -1.1 °C 1021.2 hPa WNW 6.4 km/h 12.9 km/h 24% 0 mm
17:30 19.7 °C -0.8 °C 1021.2 hPa West 8 km/h 12.9 km/h 25% 0 mm
17:35 19.4 °C -1.2 °C 1021.2 hPa WNW 6.4 km/h 12.9 km/h 25% 0 mm
17:40 19.3 °C -1.2 °C 1021.2 hPa WNW 6.4 km/h 9.7 km/h 25% 0 mm
17:45 19.6 °C -0.4 °C 1020.9 hPa West 3.2 km/h 8 km/h 26% 0 mm
17:50 19.8 °C -0.8 °C 1020.9 hPa Calm   8 km/h 25% 0 mm
17:55 19.9 °C -0.2 °C 1020.5 hPa West 3.2 km/h 9.7 km/h 26% 0 mm
18:05 19.7 °C -0.8 °C 1020.2 hPa SW 3.2 km/h 8 km/h 25% 0 mm
18:10 19.7 °C -0.8 °C 1020.2 hPa Calm   8 km/h 25% 0 mm
18:15 20 °C -0.1 °C 1019.9 hPa Calm   1.6 km/h 26% 0 mm
18:20 19.9 °C -0.7 °C 1019.9 hPa SW 4.8 km/h 8 km/h 25% 0 mm
18:25 19.5 °C -1.1 °C 1019.9 hPa WSW 1.6 km/h 8 km/h 25% 0 mm
18:30 19.4 °C -0.6 °C 1019.9 hPa WSW 1.6 km/h 8 km/h 26% 0 mm
18:35 19.3 °C -0.1 °C 1019.9 hPa Calm   6.4 km/h 27% 0 mm
18:45 19.1 °C 0.1 °C 1019.9 hPa Calm   8 km/h 28% 0 mm
18:50 18.9 °C -0.4 °C 1019.5 hPa South 3.2 km/h 8 km/h 27% 0 mm
18:55 18.9 °C 0 °C 1019.5 hPa Calm   8 km/h 28% 0 mm
19:00 18.8 °C -0.6 °C 1019.5 hPa Calm   8 km/h 27% 0 mm
19:05 18.7 °C -0.2 °C 1019.5 hPa South 1.6 km/h 6.4 km/h 28% 0 mm
19:10 18.6 °C -0.3 °C 1019.2 hPa South 1.6 km/h 8 km/h 28% 0 mm
19:15 18.4 °C -0.4 °C 1019.2 hPa Calm   8 km/h 28% 0 mm
19:20 18.1 °C -0.2 °C 1019.2 hPa South 1.6 km/h 4.8 km/h 29% 0 mm
19:25 17.3 °C 0.8 °C 1019.2 hPa Calm   4.8 km/h 33% 0 mm
19:30 16.6 °C 0.6 °C 1019.2 hPa Calm   1.6 km/h 34% 0 mm
19:40 15.5 °C -0.3 °C 1019.5 hPa Calm   1.6 km/h 34% 0 mm
19:45 15.4 °C 0.4 °C 1019.5 hPa Calm   1.6 km/h 36% 0 mm
19:50 15.2 °C 0.2 °C 1019.5 hPa Calm   1.6 km/h 36% 0 mm
19:55 14.9 °C 0.7 °C 1019.5 hPa Calm   3.2 km/h 38% 0 mm
20:00 14.8 °C -0.1 °C 1019.5 hPa SSE 3.2 km/h 4.8 km/h 36% 0 mm
20:05 15 °C 0.1 °C 1019.2 hPa Calm   4.8 km/h 36% 0 mm
20:10 15 °C 0.4 °C 1019.2 hPa Calm   4.8 km/h 37% 0 mm
20:15 14.9 °C 0.4 °C 1019.2 hPa Calm   4.8 km/h 37% 0 mm
20:20 15 °C 0.4 °C 1018.8 hPa SSE 1.6 km/h 6.4 km/h 37% 0 mm
20:25 15 °C 0.4 °C 1019.2 hPa Calm   6.4 km/h 37% 0 mm
20:30 14.8 °C 1 °C 1019.2 hPa Calm   6.4 km/h 39% 0 mm
20:35 14.7 °C -0.2 °C 1019.2 hPa Calm   6.4 km/h 36% 0 mm
20:40 14.7 °C 0.8 °C 1019.5 hPa Calm   3.2 km/h 39% 0 mm
20:45 14.8 °C 0.2 °C 1019.5 hPa Calm   6.4 km/h 37% 0 mm
20:50 14.6 °C 1.4 °C 1019.9 hPa Calm   6.4 km/h 41% 0 mm
21:00 13.9 °C 0.5 °C 1019.9 hPa Calm     40% 0 mm
21:05 13.8 °C 2.7 °C 1019.9 hPa Calm     47% 0 mm
21:10 13.4 °C 1.4 °C 1019.9 hPa Calm     44% 0 mm
21:15 13 °C 1.7 °C 1019.9 hPa Calm   3.2 km/h 46% 0 mm
21:20 12.5 °C 2.3 °C 1019.9 hPa Calm   3.2 km/h 50% 0 mm
21:25 12.3 °C 2.2 °C 1019.9 hPa Calm   3.2 km/h 50% 0 mm
21:30 12.1 °C 1.9 °C 1019.9 hPa Calm   3.2 km/h 50% 0 mm
21:35 11.9 °C 2.1 °C 1019.9 hPa Calm   3.2 km/h 51% 0 mm
21:40 11.8 °C 1.9 °C 1020.2 hPa Calm   1.6 km/h 51% 0 mm
21:45 11.6 °C 1.5 °C 1020.2 hPa Calm   3.2 km/h 50% 0 mm
21:50 12.1 °C 1.7 °C 1020.2 hPa Calm   3.2 km/h 49% 0 mm
21:55 12.7 °C 1.1 °C 1020.5 hPa Calm   3.2 km/h 45% 0 mm
22:00 13.2 °C 1.2 °C 1020.5 hPa Calm   3.2 km/h 44% 0 mm
22:05 13.4 °C 2 °C 1020.5 hPa Calm   1.6 km/h 46% 0 mm
22:10 13.3 °C 2.3 °C 1020.5 hPa Calm   1.6 km/h 47% 0 mm
22:15 13.1 °C 2.3 °C 1020.5 hPa South 1.6 km/h 4.8 km/h 48% 0 mm
22:20 12.7 °C 1.1 °C 1020.5 hPa South 1.6 km/h 4.8 km/h 45% 0 mm
22:25 12.7 °C 1.9 °C 1020.5 hPa Calm   4.8 km/h 48% 0 mm
22:30 12.7 °C 1.1 °C 1020.5 hPa South 1.6 km/h 4.8 km/h 45% 0 mm
22:35 12.7 °C 1.3 °C 1020.5 hPa Calm   3.2 km/h 46% 0 mm
22:40 12.6 °C 0.1 °C 1020.5 hPa Calm     42% 0 mm
22:45 12.6 °C 0.6 °C 1020.5 hPa Calm   3.2 km/h 44% 0 mm
22:50 12.7 °C -0.2 °C 1020.5 hPa Calm   3.2 km/h 41% 0 mm
22:55 13 °C -0.3 °C 1020.5 hPa Calm   8 km/h 40% 0 mm
23:00 13.4 °C -0.7 °C 1020.5 hPa South 1.6 km/h 8 km/h 38% 0 mm
23:05 13.6 °C -0.1 °C 1020.2 hPa South 1.6 km/h 8 km/h 39% 0 mm
23:10 13.5 °C 0.2 °C 1020.5 hPa Calm   8 km/h 40% 0 mm
23:20 13.3 °C -0.1 °C 1020.5 hPa Calm   8 km/h 40% 0 mm
23:25 12.9 °C 0.3 °C 1020.5 hPa Calm   8 km/h 42% 0 mm
23:30 12.6 °C 0 °C 1020.5 hPa Calm   4.8 km/h 42% 0 mm
23:35 12.2 °C 1.2 °C 1020.5 hPa Calm   1.6 km/h 47% 0 mm
23:40 11.9 °C 0.7 °C 1020.5 hPa Calm   1.6 km/h 46% 0 mm
23:45 11.7 °C 0.2 °C 1020.5 hPa South 1.6 km/h 9.7 km/h 45% 0 mm
23:50 11.5 °C 0.9 °C 1020.5 hPa South 1.6 km/h 9.7 km/h 48% 0 mm
23:55 11.4 °C 0.5 °C 1020.2 hPa South 1.6 km/h 6.4 km/h 47% 0 mm
Westford Weather
Compliments of Weather Underground

 
 
Current Radar Loop:

Copyright © WestfordWeather.net 2007-2014. All rights reserved.